Time;durP1;ratioP1;P1;durP2;ratioP2;P2;SDS_P1;SDS_P2;PMS_P1;PMS_P2;Temp;Humidity;BMP_temperature;BMP_pressure;BME280_temperature;BME280_humidity;BME280_pressure;Samples;Min_cycle;Max_cycle;Signal;HPM_P1;HPM_P2
2022/11/23 00:01:49;;;;;;;10.60;7.05;;;8.20;99.90;;;;;;5088267;28;20152;-88
2022/11/23 00:04:19;;;;;;;12.25;7.40;;;8.20;99.90;;;;;;5083211;28;20040;-88
2022/11/23 00:06:49;;;;;;;11.35;6.72;;;8.20;99.90;;;;;;5090583;28;20077;-87
2022/11/23 00:09:23;;;;;;;11.43;7.32;;;8.30;99.90;;;;;;5081463;28;20502;-88
2022/11/23 00:11:52;;;;;;;12.07;7.93;;;8.20;99.90;;;;;;5101524;28;20032;-87
2022/11/23 00:14:22;;;;;;;12.50;7.45;;;8.20;99.90;;;;;;5080290;28;20036;-87
2022/11/23 00:16:57;;;;;;;13.35;7.20;;;8.30;99.90;;;;;;5076278;28;20395;-88
2022/11/23 00:19:33;;;;;;;17.40;7.90;;;8.30;99.90;;;;;;5077087;28;20038;-88
2022/11/23 00:22:02;;;;;;;8.68;6.45;;;8.30;99.90;;;;;;5076024;28;20127;-88
2022/11/23 00:24:43;;;;;;;10.23;7.35;;;8.30;99.90;;;;;;5075212;28;20149;-88
2022/11/23 00:27:17;;;;;;;9.10;6.25;;;8.30;99.90;;;;;;5093133;28;20036;-88
2022/11/23 00:29:46;;;;;;;9.18;6.45;;;8.30;99.90;;;;;;5082843;28;20032;-88
2022/11/23 00:32:12;;;;;;;11.13;6.88;;;8.30;99.90;;;;;;5085504;28;20052;-88
2022/11/23 00:34:53;;;;;;;11.52;6.40;;;8.30;99.90;;;;;;5093293;28;20099;-88
2022/11/23 00:37:25;;;;;;;8.95;6.25;;;8.30;99.90;;;;;;5092997;28;20432;-88
2022/11/23 00:39:57;;;;;;;10.07;5.80;;;8.30;99.90;;;;;;5074924;28;20399;-89
2022/11/23 00:42:26;;;;;;;9.85;5.88;;;8.30;99.90;;;;;;5069738;28;20029;-89
2022/11/23 00:44:54;;;;;;;10.75;5.82;;;8.40;99.90;;;;;;5093393;28;20028;-89
2022/11/23 01:23:59;;;;;;;9.95;6.15;;;8.40;99.90;;;;;;5109740;27;20043;-88
2022/11/23 01:26:25;;;;;;;9.80;5.75;;;8.40;99.90;;;;;;5116343;28;20047;-88
2022/11/23 01:28:51;;;;;;;9.80;5.97;;;8.40;99.90;;;;;;5098910;28;20032;-88
2022/11/23 01:31:21;;;;;;;12.45;7.03;;;8.40;99.90;;;;;;5116006;28;20055;-87
2022/11/23 01:33:47;;;;;;;11.07;6.32;;;8.40;99.90;;;;;;5097123;28;20032;-87
2022/11/23 01:36:33;;;;;;;9.73;6.05;;;8.40;99.90;;;;;;5098026;28;20046;-88
2022/11/23 01:39:01;;;;;;;8.20;5.00;;;8.40;99.90;;;;;;5098623;28;20043;-87
2022/11/23 01:41:32;;;;;;;9.18;5.43;;;8.50;99.90;;;;;;5098497;28;20118;-88
2022/11/23 01:43:58;;;;;;;12.45;5.60;;;8.40;99.90;;;;;;5103780;28;20035;-88
2022/11/23 01:46:27;;;;;;;9.65;5.72;;;8.40;99.90;;;;;;5098463;27;20123;-88
2022/11/23 01:49:02;;;;;;;12.95;5.65;;;8.40;99.90;;;;;;5085378;28;20050;-87
2022/11/23 01:51:37;;;;;;;10.43;5.53;;;8.40;99.90;;;;;;5114645;28;20034;-86
2022/11/23 01:54:08;;;;;;;10.65;5.95;;;8.40;99.90;;;;;;5089257;28;20096;-86
2022/11/23 01:56:40;;;;;;;10.07;5.07;;;8.40;99.90;;;;;;5115523;28;20035;-86
2022/11/23 01:59:15;;;;;;;9.27;5.03;;;8.40;99.90;;;;;;5095252;28;20062;-87
2022/11/23 02:01:41;;;;;;;14.07;5.13;;;8.40;99.90;;;;;;5095156;28;20036;-86
2022/11/23 02:04:13;;;;;;;8.57;4.30;;;8.50;99.90;;;;;;5095647;28;20047;-87
2022/11/23 02:06:40;;;;;;;12.20;4.78;;;8.40;99.90;;;;;;5096575;27;20049;-86
2022/11/23 02:09:06;;;;;;;8.77;4.43;;;8.30;99.90;;;;;;5098693;27;20031;-88
2022/11/23 02:11:32;;;;;;;9.52;4.60;;;8.30;99.90;;;;;;5120734;27;20057;-89
2022/11/23 02:13:59;;;;;;;7.93;4.28;;;8.40;99.90;;;;;;5096875;28;20024;-87
2022/11/23 02:16:24;;;;;;;8.70;4.35;;;8.30;99.90;;;;;;5096839;28;20031;-87
2022/11/23 02:18:51;;;;;;;7.57;4.03;;;8.30;99.90;;;;;;5115622;27;20126;-87
2022/11/23 02:21:17;;;;;;;11.48;3.85;;;8.30;99.90;;;;;;5096994;28;20027;-88
2022/11/23 02:24:00;;;;;;;10.25;5.18;;;8.30;99.90;;;;;;5094701;28;20039;-89
2022/11/23 02:26:28;;;;;;;10.93;3.70;;;8.40;99.90;;;;;;5095433;28;20047;-86
2022/11/23 02:29:12;;;;;;;11.57;4.32;;;8.30;99.90;;;;;;5095237;28;20330;-88
2022/11/23 02:31:43;;;;;;;10.00;3.92;;;8.30;99.90;;;;;;5114912;28;20112;-87
2022/11/23 02:34:16;;;;;;;7.30;3.25;;;8.30;99.90;;;;;;5096579;28;20050;-86
2022/11/23 02:36:48;;;;;;;6.50;3.50;;;8.30;99.90;;;;;;5093744;28;20538;-87
2022/11/23 02:39:40;;;;;;;5.80;3.22;;;8.30;99.90;;;;;;5108680;28;20032;-87
2022/11/23 02:42:06;;;;;;;8.93;3.55;;;8.30;99.90;;;;;;5084794;28;20039;-87
2022/11/23 02:44:59;;;;;;;9.52;4.18;;;8.30;99.90;;;;;;5096807;28;20031;-87
2022/11/23 02:47:27;;;;;;;8.35;3.70;;;8.30;99.90;;;;;;5097069;28;20031;-87
2022/11/23 02:49:59;;;;;;;9.95;3.97;;;8.30;99.90;;;;;;5101859;27;20467;-87
2022/11/23 02:52:27;;;;;;;9.70;4.00;;;8.30;99.90;;;;;;5095999;28;20039;-87
2022/11/23 02:54:54;;;;;;;12.25;4.63;;;8.30;99.90;;;;;;5096712;28;20039;-87
2022/11/23 02:57:25;;;;;;;8.57;4.10;;;8.30;99.90;;;;;;5097151;28;20104;-87
2022/11/23 02:59:53;;;;;;;8.38;4.15;;;8.30;99.90;;;;;;5093012;28;20039;-88
2022/11/23 03:02:19;;;;;;;11.25;4.03;;;8.40;99.90;;;;;;5096727;28;20032;-87
2022/11/23 03:04:45;;;;;;;8.27;4.05;;;8.40;99.90;;;;;;5096853;28;20043;-87
2022/11/23 03:07:13;;;;;;;12.32;3.97;;;8.40;99.90;;;;;;5113605;27;20032;-87
2022/11/23 03:09:39;;;;;;;8.15;3.50;;;8.40;99.90;;;;;;5095895;27;20123;-88
2022/11/23 03:12:08;;;;;;;8.93;4.15;;;8.40;99.90;;;;;;5107227;28;20034;-88
2022/11/23 03:14:33;;;;;;;6.85;3.75;;;8.40;99.90;;;;;;5097767;28;20027;-87
2022/11/23 03:17:00;;;;;;;6.47;3.03;;;8.40;99.90;;;;;;5095812;28;20038;-87
2022/11/23 03:19:26;;;;;;;7.07;3.20;;;8.50;99.90;;;;;;5095374;28;20031;-87
2022/11/23 03:21:55;;;;;;;5.68;2.75;;;8.40;99.90;;;;;;5092898;28;20035;-88
2022/11/23 03:24:25;;;;;;;6.05;2.50;;;8.50;99.90;;;;;;5095442;28;20092;-87
2022/11/23 03:26:51;;;;;;;9.60;2.60;;;8.50;99.90;;;;;;5110805;27;20092;-88
2022/11/23 03:29:17;;;;;;;9.68;2.70;;;8.50;99.90;;;;;;5134152;27;20463;-87
2022/11/23 03:31:43;;;;;;;9.25;3.28;;;8.50;99.90;;;;;;5120025;27;20059;-87
2022/11/23 03:34:09;;;;;;;10.10;2.80;;;8.50;99.90;;;;;;5106347;28;20055;-87
2022/11/23 03:36:35;;;;;;;6.18;2.15;;;8.50;99.90;;;;;;5098042;27;20440;-87
2022/11/23 03:39:00;;;;;;;7.28;2.30;;;8.50;99.90;;;;;;5115494;27;20031;-87
2022/11/23 03:41:26;;;;;;;7.70;2.47;;;8.50;99.90;;;;;;5120065;27;20115;-87
2022/11/23 03:43:52;;;;;;;9.55;2.20;;;8.50;99.90;;;;;;5106390;28;20020;-88
2022/11/23 03:46:20;;;;;;;6.82;2.15;;;8.50;99.90;;;;;;5126314;27;20027;-87
2022/11/23 03:48:45;;;;;;;8.52;2.42;;;8.50;99.90;;;;;;5095285;28;20036;-87
2022/11/23 03:51:14;;;;;;;6.40;2.60;;;8.50;99.90;;;;;;5108881;28;20031;-88
2022/11/23 03:53:42;;;;;;;7.45;2.30;;;8.50;99.90;;;;;;5095162;28;20027;-87
2022/11/23 03:56:08;;;;;;;3.95;2.00;;;8.50;99.90;;;;;;5076040;28;20457;-88
2022/11/23 03:58:34;;;;;;;8.23;3.50;;;8.50;99.90;;;;;;5094844;28;20035;-87
2022/11/23 04:01:00;;;;;;;5.20;2.13;;;8.50;99.90;;;;;;5094932;28;20039;-87
2022/11/23 04:03:27;;;;;;;6.68;2.15;;;8.50;99.90;;;;;;5103259;28;20373;-87
2022/11/23 04:05:53;;;;;;;6.90;2.40;;;8.50;99.90;;;;;;5093914;28;20066;-87
2022/11/23 04:08:21;;;;;;;6.65;2.55;;;8.50;99.90;;;;;;5095241;28;20071;-88
2022/11/23 04:10:47;;;;;;;7.53;2.40;;;8.50;99.90;;;;;;5095873;28;20503;-88
2022/11/23 04:13:13;;;;;;;6.30;2.03;;;8.50;99.90;;;;;;5095043;28;20111;-87
2022/11/23 04:15:38;;;;;;;8.55;2.72;;;8.60;99.90;;;;;;5098282;28;20024;-87
2022/11/23 04:18:04;;;;;;;7.65;2.67;;;8.50;99.90;;;;;;5095368;28;20481;-86
2022/11/23 04:20:30;;;;;;;7.60;2.60;;;8.50;99.90;;;;;;5094951;28;20378;-87
2022/11/23 04:22:56;;;;;;;7.65;2.30;;;8.50;99.90;;;;;;5102392;28;20032;-87
2022/11/23 04:25:21;;;;;;;7.13;3.10;;;8.50;99.90;;;;;;5102327;28;20046;-87
2022/11/23 04:27:47;;;;;;;8.15;3.10;;;8.50;99.90;;;;;;5102472;28;20032;-88
2022/11/23 04:30:13;;;;;;;5.63;2.33;;;8.40;99.90;;;;;;5104657;28;20029;-87
2022/11/23 04:32:39;;;;;;;7.70;2.35;;;8.30;99.90;;;;;;5091813;28;20030;-88
2022/11/23 04:35:04;;;;;;;7.72;2.17;;;8.30;99.90;;;;;;5092870;28;20032;-86
2022/11/23 04:37:30;;;;;;;5.82;2.15;;;8.20;99.90;;;;;;5104334;28;20076;-88
2022/11/23 04:39:56;;;;;;;8.75;2.80;;;8.20;99.90;;;;;;5096866;28;20043;-86
2022/11/23 04:42:21;;;;;;;8.00;2.80;;;8.20;99.90;;;;;;5104411;28;20032;-88
2022/11/23 04:44:48;;;;;;;9.05;2.72;;;8.20;99.90;;;;;;5111743;28;20020;-87
2022/11/23 04:47:14;;;;;;;12.15;3.30;;;8.20;99.90;;;;;;5115615;28;20063;-87
2022/11/23 04:49:39;;;;;;;8.30;3.05;;;8.20;99.90;;;;;;5110574;28;20063;-88
2022/11/23 04:52:06;;;;;;;11.20;2.90;;;8.20;99.90;;;;;;5096641;28;20044;-87
2022/11/23 04:54:34;;;;;;;6.95;3.03;;;8.20;99.90;;;;;;5101076;28;20084;-87
2022/11/23 04:57:00;;;;;;;10.27;3.28;;;8.30;99.90;;;;;;5115713;28;20035;-88
2022/11/23 04:59:26;;;;;;;9.98;3.03;;;8.30;99.90;;;;;;5097031;28;20032;-89
2022/11/23 05:01:53;;;;;;;12.88;3.17;;;8.30;99.90;;;;;;5115604;28;20051;-87
2022/11/23 05:04:19;;;;;;;11.02;3.75;;;8.30;99.90;;;;;;5091950;28;20040;-87
2022/11/23 05:06:48;;;;;;;9.10;2.80;;;8.30;99.90;;;;;;5106896;28;20387;-88
2022/11/23 05:09:18;;;;;;;9.57;3.33;;;8.40;99.90;;;;;;5115090;28;20395;-87
2022/11/23 05:11:46;;;;;;;15.50;3.55;;;8.30;99.90;;;;;;5106773;28;20063;-87
2022/11/23 05:14:13;;;;;;;11.85;2.60;;;8.30;99.90;;;;;;5103305;28;20137;-87
2022/11/23 05:16:38;;;;;;;12.65;3.60;;;8.30;99.90;;;;;;5114551;28;20118;-87
2022/11/23 05:19:08;;;;;;;11.45;3.03;;;8.40;99.90;;;;;;5116269;27;20046;-87
2022/11/23 05:21:41;;;;;;;10.27;2.92;;;8.40;99.90;;;;;;5112402;28;20443;-87
2022/11/23 05:24:07;;;;;;;9.13;2.40;;;8.40;99.90;;;;;;5082430;28;20040;-86
2022/11/23 05:26:34;;;;;;;10.60;3.00;;;8.40;99.90;;;;;;5097322;28;20050;-87
2022/11/23 05:29:03;;;;;;;8.13;2.35;;;8.40;99.90;;;;;;5103023;28;20479;-87
2022/11/23 05:31:34;;;;;;;6.82;2.20;;;8.40;99.90;;;;;;5111284;27;20470;-87
2022/11/23 05:34:05;;;;;;;10.57;2.03;;;8.40;99.90;;;;;;5124181;27;20027;-87
2022/11/23 05:36:31;;;;;;;9.30;1.95;;;8.40;99.90;;;;;;5116742;27;20043;-88
2022/11/23 05:38:57;;;;;;;10.02;2.35;;;8.40;99.90;;;;;;5097236;28;20055;-87
2022/11/23 05:41:25;;;;;;;12.52;3.25;;;8.40;99.90;;;;;;5098248;28;20081;-88
2022/11/23 05:43:56;;;;;;;12.95;3.75;;;8.40;99.90;;;;;;5098011;28;20420;-87
2022/11/23 05:46:22;;;;;;;8.80;2.55;;;8.50;99.90;;;;;;5098360;28;20119;-87
2022/11/23 05:48:48;;;;;;;11.00;2.40;;;8.40;99.90;;;;;;5114487;28;20122;-87
2022/11/23 05:51:14;;;;;;;8.10;2.08;;;8.40;99.90;;;;;;5112207;27;20036;-89
2022/11/23 05:53:39;;;;;;;7.45;2.08;;;8.40;99.90;;;;;;5087816;28;20032;-89
2022/11/23 05:56:08;;;;;;;9.32;2.30;;;8.50;99.90;;;;;;5097673;28;20023;-89
2022/11/23 05:58:43;;;;;;;10.98;2.83;;;8.50;99.90;;;;;;5097218;28;20151;-88
2022/11/23 06:01:08;;;;;;;9.73;2.90;;;8.50;99.90;;;;;;5094795;27;20088;-89
2022/11/23 06:03:37;;;;;;;10.15;2.65;;;8.40;99.90;;;;;;5089507;28;20484;-89
2022/11/23 06:06:11;;;;;;;15.85;3.05;;;8.50;99.90;;;;;;5096436;27;20479;-87
2022/11/23 06:08:37;;;;;;;8.98;2.80;;;8.50;99.90;;;;;;5109280;27;20040;-88
2022/11/23 06:11:10;;;;;;;9.52;2.58;;;8.50;99.90;;;;;;5091068;28;20143;-89
2022/11/23 06:13:36;;;;;;;11.27;2.53;;;8.40;99.90;;;;;;5100939;28;20043;-87
2022/11/23 06:16:01;;;;;;;10.77;2.50;;;8.40;99.90;;;;;;5091644;27;20031;-87
2022/11/23 06:18:29;;;;;;;16.95;3.40;;;8.40;99.90;;;;;;5102924;28;20054;-89
2022/11/23 06:20:59;;;;;;;9.57;3.45;;;8.40;99.90;;;;;;5116748;27;20082;-87
2022/11/23 06:23:24;;;;;;;7.65;3.13;;;8.40;99.90;;;;;;5102237;28;20035;-87
2022/11/23 06:25:51;;;;;;;10.90;2.63;;;8.40;99.90;;;;;;5100116;28;20040;-89
2022/11/23 06:28:26;;;;;;;10.90;2.93;;;8.40;99.90;;;;;;5115349;28;20054;-87
2022/11/23 06:30:53;;;;;;;11.43;3.03;;;8.30;99.90;;;;;;5095666;28;20028;-87
2022/11/23 06:33:21;;;;;;;9.23;2.75;;;8.30;99.90;;;;;;5108548;28;20112;-88
2022/11/23 06:35:59;;;;;;;9.68;2.40;;;8.30;99.90;;;;;;5096001;28;20110;-89
2022/11/23 06:38:27;;;;;;;8.93;2.42;;;8.30;99.90;;;;;;5096724;28;20027;-89
2022/11/23 06:40:57;;;;;;;9.77;2.33;;;8.30;99.90;;;;;;5114508;28;20032;-89
2022/11/23 06:43:26;;;;;;;17.40;3.30;;;8.40;99.90;;;;;;5115563;27;20028;-89
2022/11/23 06:45:53;;;;;;;8.57;2.58;;;8.30;99.90;;;;;;5102233;28;20107;-88
2022/11/23 06:48:20;;;;;;;8.60;2.42;;;8.30;99.90;;;;;;5113657;28;20046;-88
2022/11/23 06:50:47;;;;;;;9.02;2.28;;;8.40;99.90;;;;;;5096059;28;20131;-88
2022/11/23 06:53:16;;;;;;;14.32;2.33;;;8.40;99.90;;;;;;5113785;28;20055;-88
2022/11/23 06:55:42;;;;;;;9.50;2.50;;;8.40;99.90;;;;;;5112406;27;20463;-89
2022/11/23 06:58:08;;;;;;;14.23;2.35;;;8.40;99.90;;;;;;5105626;28;20030;-88
2022/11/23 07:00:34;;;;;;;7.95;1.90;;;8.30;99.90;;;;;;5113055;27;20466;-90
2022/11/23 07:03:00;;;;;;;12.88;2.88;;;8.40;99.90;;;;;;5101458;28;20092;-88
2022/11/23 07:05:26;;;;;;;12.30;2.40;;;8.40;99.90;;;;;;5119156;27;20555;-88
2022/11/23 07:07:57;;;;;;;10.95;2.45;;;8.30;99.90;;;;;;5119026;27;20051;-89
2022/11/23 07:10:22;;;;;;;12.88;3.00;;;8.30;99.90;;;;;;5114232;27;20024;-88
2022/11/23 07:12:51;;;;;;;13.00;3.13;;;8.30;99.90;;;;;;5100610;28;20027;-87
2022/11/23 07:15:18;;;;;;;12.63;3.08;;;8.30;99.90;;;;;;5103041;27;20478;-88
2022/11/23 07:17:44;;;;;;;12.50;3.20;;;8.30;99.90;;;;;;5099153;28;20035;-87
2022/11/23 07:20:11;;;;;;;14.30;3.35;;;8.30;99.90;;;;;;5099588;28;20039;-87
2022/11/23 07:22:38;;;;;;;18.85;3.80;;;8.30;99.90;;;;;;5102278;28;20032;-87
2022/11/23 07:25:07;;;;;;;13.55;2.90;;;8.30;99.90;;;;;;5104877;28;20043;-87
2022/11/23 07:27:37;;;;;;;9.27;2.25;;;8.30;99.90;;;;;;5115425;27;20114;-87
2022/11/23 07:30:03;;;;;;;11.77;2.30;;;8.30;99.90;;;;;;5097148;28;20044;-87
2022/11/23 07:32:35;;;;;;;8.50;2.17;;;8.30;99.90;;;;;;5112640;27;20123;-87
2022/11/23 07:35:00;;;;;;;8.85;2.13;;;8.30;99.90;;;;;;5098692;28;20032;-87
2022/11/23 07:37:26;;;;;;;9.52;1.83;;;8.30;99.90;;;;;;5120906;27;20031;-87
2022/11/23 07:39:52;;;;;;;10.68;2.50;;;8.30;99.90;;;;;;5096629;28;20035;-86
2022/11/23 07:42:21;;;;;;;11.30;2.40;;;8.30;99.90;;;;;;5106164;28;20024;-86
2022/11/23 07:44:47;;;;;;;16.92;2.85;;;8.30;99.90;;;;;;5111946;28;20031;-85
2022/11/23 07:47:25;;;;;;;16.48;2.63;;;8.30;99.90;;;;;;5113605;28;20032;-87
2022/11/23 07:50:01;;;;;;;12.98;1.83;;;8.30;99.90;;;;;;5107736;28;20051;-88
2022/11/23 07:52:34;;;;;;;8.70;2.13;;;8.30;99.90;;;;;;5100990;27;20107;-85
2022/11/23 07:55:10;;;;;;;9.57;2.08;;;8.30;99.90;;;;;;5094934;28;20467;-86
2022/11/23 07:57:38;;;;;;;9.70;2.00;;;8.20;99.90;;;;;;5108551;27;20554;-88
2022/11/23 08:00:05;;;;;;;11.30;3.03;;;8.20;99.90;;;;;;5113070;28;20114;-87
2022/11/23 08:02:42;;;;;;;8.95;2.15;;;8.10;99.90;;;;;;5099974;28;20114;-91
2022/11/23 08:05:17;;;;;;;11.77;2.45;;;8.00;99.90;;;;;;5095130;28;20046;-88
2022/11/23 08:07:58;;;;;;;14.48;2.25;;;8.00;99.90;;;;;;5112847;28;20069;-86
2022/11/23 08:10:24;;;;;;;12.27;2.90;;;8.00;99.90;;;;;;5094884;28;20049;-87
2022/11/23 08:13:00;;;;;;;11.35;2.53;;;8.00;99.90;;;;;;5081398;28;20059;-86
2022/11/23 08:15:29;;;;;;;12.50;1.95;;;8.00;99.90;;;;;;5107876;28;20039;-86
2022/11/23 08:17:56;;;;;;;8.80;1.92;;;8.10;99.90;;;;;;5095056;28;20039;-86
2022/11/23 08:20:22;;;;;;;9.57;2.05;;;8.00;99.90;;;;;;5094596;28;20499;-86
2022/11/23 08:22:56;;;;;;;10.07;1.95;;;8.10;99.90;;;;;;5094910;28;20039;-89
2022/11/23 08:25:24;;;;;;;9.57;2.00;;;8.10;99.90;;;;;;5107929;28;20039;-86
2022/11/23 08:27:58;;;;;;;11.10;1.88;;;8.10;99.90;;;;;;5103291;28;20063;-87
2022/11/23 08:30:26;;;;;;;13.57;2.25;;;8.20;99.90;;;;;;5110964;28;20047;-86
2022/11/23 08:33:01;;;;;;;12.70;2.65;;;8.30;99.90;;;;;;5112696;28;20053;-88
2022/11/23 08:35:27;;;;;;;12.98;2.63;;;8.30;99.90;;;;;;5118756;28;20544;-86
2022/11/23 08:37:52;;;;;;;10.27;2.25;;;8.30;99.90;;;;;;5094813;28;20023;-87
2022/11/23 08:40:19;;;;;;;12.95;2.17;;;8.40;99.90;;;;;;5091573;28;20039;-86
2022/11/23 08:42:46;;;;;;;12.93;2.65;;;8.50;99.90;;;;;;5095358;28;20471;-87
2022/11/23 08:45:12;;;;;;;12.52;2.55;;;8.60;99.90;;;;;;5106966;28;20032;-87
2022/11/23 08:47:37;;;;;;;11.05;1.95;;;8.80;99.90;;;;;;5099086;28;20036;-88
2022/11/23 08:50:04;;;;;;;11.77;2.58;;;9.20;99.90;;;;;;5107572;28;20479;-91
2022/11/23 08:52:30;;;;;;;10.88;2.30;;;9.50;99.90;;;;;;5117287;28;20024;-87
2022/11/23 08:58:00;;;;;;;11.63;2.13;;;11.20;99.90;;;;;;5051279;28;20041;-87
2022/11/23 09:00:29;;;;;;;8.13;2.22;;;12.30;99.90;;;;;;5090610;28;20034;-88
2022/11/23 09:02:57;;;;;;;12.90;2.97;;;12.70;99.90;;;;;;5106177;28;20039;-87
2022/11/23 09:05:23;;;;;;;11.35;2.35;;;13.10;99.90;;;;;;5103978;28;20031;-87
2022/11/23 09:07:49;;;;;;;7.30;1.60;;;13.40;99.90;;;;;;5101523;28;20024;-88
2022/11/23 09:10:29;;;;;;;9.75;2.05;;;13.70;99.90;;;;;;5104770;28;20078;-87
2022/11/23 09:12:55;;;;;;;8.85;2.20;;;14.10;99.90;;;;;;5100839;28;20364;-87
2022/11/23 09:15:31;;;;;;;;;;;;;;;;;;;;;
2022/11/23 09:17:57;;;;;;;11.80;2.42;;;14.30;99.90;;;;;;5132972;28;20043;-87
2022/11/23 09:20:23;;;;;;;9.63;2.10;;;14.30;99.90;;;;;;5097732;28;20565;-88
2022/11/23 09:22:55;;;;;;;10.18;2.50;;;14.40;99.90;;;;;;5112654;28;20101;-87
2022/11/23 09:25:22;;;;;;;8.00;1.92;;;14.60;99.90;;;;;;5096631;28;20036;-87
2022/11/23 09:27:48;;;;;;;9.82;2.05;;;14.70;99.90;;;;;;5105567;28;20047;-87
2022/11/23 09:30:15;;;;;;;6.97;2.28;;;15.00;99.90;;;;;;5090915;28;20044;-87
2022/11/23 09:32:46;;;;;;;6.90;1.85;;;15.20;99.90;;;;;;5076846;28;20063;-87
2022/11/23 09:35:14;;;;;;;9.27;1.90;;;15.30;99.90;;;;;;5095991;28;20032;-89
2022/11/23 09:37:45;;;;;;;9.43;2.63;;;15.50;99.90;;;;;;5073762;28;20123;-87
2022/11/23 09:40:17;;;;;;;9.52;2.15;;;15.40;99.90;;;;;;5095416;28;20071;-87
2022/11/23 09:42:58;;;;;;;14.38;2.97;;;15.40;99.90;;;;;;5101953;28;20081;-88
2022/11/23 09:45:45;;;;;;;10.40;2.00;;;15.60;99.90;;;;;;5075082;28;20412;-88
2022/11/23 09:48:38;;;;;;;6.95;1.88;;;15.60;99.90;;;;;;5079330;28;20115;-87
2022/11/23 09:51:20;;;;;;;10.90;2.08;;;15.80;99.90;;;;;;5080064;28;20488;-88
2022/11/23 09:53:52;;;;;;;9.40;2.20;;;15.80;99.90;;;;;;5086962;28;20471;-87
2022/11/23 09:56:28;;;;;;;10.98;2.53;;;15.70;99.90;;;;;;5082633;28;20474;-86
2022/11/23 09:59:00;;;;;;;9.90;2.08;;;15.90;99.90;;;;;;5096084;28;20040;-87
2022/11/23 10:01:34;;;;;;;9.88;2.08;;;16.00;99.90;;;;;;5077133;28;20039;-89
2022/11/23 10:04:03;;;;;;;9.73;2.05;;;16.30;99.90;;;;;;5090498;28;20036;-88
2022/11/23 10:06:42;;;;;;;9.20;2.00;;;16.30;99.90;;;;;;5077202;28;20498;-87
2022/11/23 10:09:43;;;;;;;8.68;1.67;;;16.50;99.90;;;;;;5081814;28;20039;-87
2022/11/23 10:12:38;;;;;;;7.57;1.60;;;16.80;99.90;;;;;;5092262;28;20031;-87
2022/11/23 10:15:13;;;;;;;9.48;2.50;;;16.70;99.90;;;;;;5071404;28;20025;-87
2022/11/23 10:18:00;;;;;;;9.65;2.20;;;16.60;99.90;;;;;;5088471;28;20027;-88
2022/11/23 10:20:52;;;;;;;7.93;2.60;;;16.90;99.90;;;;;;5114424;28;20027;-87
2022/11/23 10:23:24;;;;;;;6.72;1.67;;;17.10;99.90;;;;;;5114505;28;20034;-87
2022/11/23 10:25:51;;;;;;;9.25;2.42;;;17.10;99.90;;;;;;5088274;28;20093;-87
2022/11/23 10:28:19;;;;;;;7.40;1.85;;;17.00;99.90;;;;;;5076312;28;20040;-88
2022/11/23 10:30:58;;;;;;;10.20;2.40;;;17.00;99.90;;;;;;5094578;28;20048;-87
2022/11/23 10:33:40;;;;;;;9.15;1.90;;;16.70;99.90;;;;;;5111609;28;20024;-87
2022/11/23 10:36:10;;;;;;;6.70;1.98;;;16.60;99.90;;;;;;5114318;28;20032;-86
2022/11/23 10:38:35;;;;;;;11.63;2.40;;;16.60;99.90;;;;;;5068635;28;20539;-87
2022/11/23 10:41:11;;;;;;;7.55;2.10;;;16.90;99.90;;;;;;5082920;28;20149;-91
2022/11/23 10:44:05;;;;;;;7.35;1.90;;;17.00;99.90;;;;;;5063766;28;20154;-86
2022/11/23 10:46:36;;;;;;;9.10;2.20;;;17.00;99.90;;;;;;5076437;28;20024;-89
2022/11/23 10:49:29;;;;;;;7.20;1.90;;;17.10;99.90;;;;;;5075402;28;20438;-88
2022/11/23 10:52:22;;;;;;;9.57;2.45;;;17.20;99.90;;;;;;5056591;28;20051;-87
2022/11/23 10:54:59;;;;;;;4.35;1.10;;;17.30;99.90;;;;;;5093134;28;20032;-87
2022/11/23 10:57:32;;;;;;;7.10;1.65;;;17.70;99.90;;;;;;5074743;28;20036;-88
2022/11/23 11:00:11;;;;;;;9.57;2.25;;;17.80;99.90;;;;;;5065388;28;20411;-87
2022/11/23 11:03:01;;;;;;;5.70;1.60;;;17.90;99.90;;;;;;5076644;28;20076;-87
2022/11/23 11:05:47;;;;;;;6.43;1.60;;;18.10;99.90;;;;;;5090202;28;20048;-87
2022/11/23 11:08:17;;;;;;;9.68;1.70;;;18.20;99.90;;;;;;5096999;28;20032;-87
2022/11/23 11:10:57;;;;;;;8.50;1.77;;;18.20;99.90;;;;;;5094578;28;20112;-88
2022/11/23 11:13:28;;;;;;;6.45;1.45;;;18.30;99.90;;;;;;5063225;28;20036;-85
2022/11/23 11:16:03;;;;;;;6.78;1.80;;;18.50;99.90;;;;;;5089070;28;20101;-87
2022/11/23 11:18:37;;;;;;;5.10;1.45;;;18.70;99.90;;;;;;5094046;28;20078;-87
2022/11/23 11:21:43;;;;;;;7.03;1.60;;;18.80;99.90;;;;;;5075293;28;20047;-86
2022/11/23 11:24:20;;;;;;;7.43;1.77;;;18.90;99.90;;;;;;5090215;28;20434;-86
2022/11/23 11:26:58;;;;;;;8.20;2.25;;;18.70;99.90;;;;;;5102880;28;20059;-87
2022/11/23 11:29:33;;;;;;;6.40;1.55;;;18.60;99.90;;;;;;5095734;28;20059;-86
2022/11/23 11:32:24;;;;;;;7.32;1.73;;;18.50;99.90;;;;;;5131862;27;20088;-93
2022/11/23 11:35:14;;;;;;;6.72;1.63;;;18.40;99.90;;;;;;5097243;28;20056;-87
2022/11/23 11:37:46;;;;;;;4.72;1.63;;;18.30;99.90;;;;;;5119771;27;20124;-87
2022/11/23 11:40:40;;;;;;;5.38;1.27;;;18.20;99.90;;;;;;5111941;28;20044;-87
2022/11/23 11:43:31;;;;;;;6.47;1.35;;;18.10;99.90;;;;;;5105472;28;20051;-87
2022/11/23 11:49:30;;;;;;;;;;;;;;;;;;;;;
2022/11/23 11:52:10;;;;;;;6.65;2.40;;;16.60;99.90;;;;;;5100961;28;20027;-87
2022/11/23 11:54:59;;;;;;;7.65;2.00;;;15.30;99.90;;;;;;5091300;28;20028;-87
2022/11/23 11:57:49;;;;;;;6.53;1.70;;;14.20;99.90;;;;;;5088964;28;20516;-87
2022/11/23 12:00:23;;;;;;;5.72;1.60;;;13.50;99.90;;;;;;5110058;27;20039;-87
2022/11/23 12:03:39;;;;;;;8.23;1.70;;;13.10;99.90;;;;;;5113980;28;20031;-87
2022/11/23 12:06:17;;;;;;;6.97;1.52;;;12.70;99.90;;;;;;5082766;28;20036;-86
2022/11/23 12:09:26;;;;;;;5.57;1.25;;;12.50;99.90;;;;;;5105203;28;20027;-86
2022/11/23 12:11:54;;;;;;;8.98;2.45;;;12.30;99.90;;;;;;5016480;28;20158;-87
2022/11/23 12:14:23;;;;;;;5.15;1.10;;;12.20;99.90;;;;;;5020465;28;20038;-85
2022/11/23 12:17:25;;;;;;;4.53;0.93;;;12.20;99.90;;;;;;5053859;28;20141;-85
2022/11/23 12:20:13;;;;;;;;;;;;;;;;;;;;;
2022/11/23 12:23:09;;;;;;;8.43;1.83;;;12.40;99.90;;;;;;5112728;28;20031;-85
2022/11/23 12:25:38;;;;;;;8.10;1.40;;;12.40;99.90;;;;;;5098068;28;20060;-85
2022/11/23 12:28:29;;;;;;;7.55;1.30;;;12.30;99.90;;;;;;5076047;28;20028;-86
2022/11/23 12:31:38;;;;;;;6.55;1.50;;;12.30;99.90;;;;;;5091051;28;20047;-87
2022/11/23 12:34:24;;;;;;;7.07;1.30;;;12.30;99.90;;;;;;5068212;28;20498;-87
2022/11/23 12:37:17;;;;;;;6.55;1.30;;;12.30;99.90;;;;;;5081152;28;20046;-86
2022/11/23 12:40:02;;;;;;;6.35;1.20;;;12.30;99.90;;;;;;5066036;28;20117;-87
2022/11/23 12:42:59;;;;;;;5.63;1.10;;;12.30;99.90;;;;;;5075009;28;20051;-86
2022/11/23 12:45:46;;;;;;;4.95;1.20;;;12.20;99.90;;;;;;5073058;28;20130;-86
2022/11/23 12:48:32;;;;;;;6.72;1.80;;;12.20;99.90;;;;;;5092926;28;20028;-86
2022/11/23 12:51:07;;;;;;;4.57;1.25;;;12.20;99.90;;;;;;5073940;28;20380;-87
2022/11/23 12:53:59;;;;;;;8.25;1.42;;;12.30;99.90;;;;;;5100903;28;20032;-86
2022/11/23 12:56:38;;;;;;;6.28;1.42;;;12.30;99.90;;;;;;5091185;28;20033;-86
2022/11/23 12:59:07;;;;;;;8.82;1.40;;;12.40;99.90;;;;;;5070397;28;20380;-85
2022/11/23 13:01:45;;;;;;;5.82;1.60;;;12.60;99.90;;;;;;5080072;28;20107;-85
2022/11/23 13:04:52;;;;;;;3.58;0.80;;;12.90;99.90;;;;;;5093547;28;20021;-86
2022/11/23 13:07:59;;;;;;;3.35;1.08;;;13.70;99.90;;;;;;5039749;28;20112;-86
2022/11/23 13:10:43;;;;;;;4.75;0.93;;;14.70;99.90;;;;;;5082240;28;20044;-86
2022/11/23 13:13:30;;;;;;;4.30;1.10;;;15.40;99.90;;;;;;5091256;28;20081;-87
2022/11/23 13:16:17;;;;;;;6.78;0.80;;;15.60;99.90;;;;;;5080590;28;20467;-87
2022/11/23 13:19:06;;;;;;;3.25;0.95;;;15.50;99.90;;;;;;5107523;28;20092;-87
2022/11/23 13:21:40;;;;;;;5.18;1.10;;;15.40;99.90;;;;;;5090154;28;20031;-86
2022/11/23 13:24:29;;;;;;;5.70;1.33;;;15.20;99.90;;;;;;5087684;28;20054;-88
2022/11/23 13:27:13;;;;;;;4.60;0.82;;;14.80;99.90;;;;;;5081250;28;20480;-88
2022/11/23 13:30:00;;;;;;;4.97;1.10;;;14.10;99.90;;;;;;5092779;28;20039;-87
2022/11/23 13:33:24;;;;;;;5.05;1.25;;;13.50;99.90;;;;;;5109699;28;20035;-88
2022/11/23 13:36:01;;;;;;;5.90;1.33;;;12.90;99.90;;;;;;5089414;28;20032;-89
2022/11/23 13:38:54;;;;;;;5.68;0.85;;;12.50;99.90;;;;;;5074769;28;20074;-89
2022/11/23 13:41:43;;;;;;;6.25;1.30;;;12.30;99.90;;;;;;5070986;28;20044;-88
2022/11/23 13:44:18;;;;;;;4.75;1.10;;;12.10;99.90;;;;;;5068085;28;20036;-86
2022/11/23 13:47:10;;;;;;;5.30;0.80;;;12.00;99.90;;;;;;5068179;28;20069;-88
2022/11/23 13:49:43;;;;;;;4.50;0.90;;;11.90;99.90;;;;;;5065002;28;20035;-85
2022/11/23 13:52:24;;;;;;;5.45;1.38;;;11.80;99.90;;;;;;5085738;28;20036;-88
2022/11/23 13:55:04;;;;;;;5.55;1.15;;;11.80;99.90;;;;;;5069779;28;20035;-85
2022/11/23 13:57:33;;;;;;;4.15;0.77;;;11.70;99.90;;;;;;5056644;28;20032;-86
2022/11/23 14:00:36;;;;;;;2.90;0.77;;;11.70;99.90;;;;;;5063110;28;20046;-86
2022/11/23 14:03:39;;;;;;;3.88;0.70;;;11.70;99.90;;;;;;5060670;28;20062;-91
2022/11/23 14:06:28;;;;;;;8.43;1.38;;;11.60;99.90;;;;;;5064778;28;20040;-90
2022/11/23 14:09:23;;;;;;;6.47;1.10;;;11.60;99.90;;;;;;5093733;28;20038;-89